Terminal Aerodrome Forecast
Issued by NWS Norman, OK

Home | Current Version | Previous Version | Text Only | Print | Product List | Glossary On
Versions: 1 2 3 4 5 6 7 8 9 10 11 12
000
FTUS44 KOUN 241720
TAFSPS
TAF
KSPS 241720Z 2418/2518 20014G20KT P6SM SCT250
     FM250000 16010KT P6SM SCT250
     FM250900 02013KT P6SM SCT120 BKN250=

USA.gov is the U.S. government's official web portal to all federal, state and local government web resources and services.